.
WxDataArchive / Data Records for 2015-05-18
2015-05-17 May 2015 2015-05-19

Data Records for Monday, 18 May 2015

Time	Temp	Chill	HIndex	Humid	Dewpt	 Wind 	HiWind	WindDir	Rain 	Barom
-----	----	-----	------	-----	-----	------	------	-------	-----	-----
00:00	71.5	71.5	71.5	90	68.4	0	1	68	0.00	29.971 
00:05	71.5	71.5	71.5	90	68.4	0	1	68	0.00	29.971 
00:10	71.5	71.5	71.5	90	68.4	0	0	---	0.00	29.971 
00:15	71.5	71.5	71.5	90	68.4	0	1	68	0.00	29.965 
00:20	71.5	71.5	71.5	90	68.4	0	1	68	0.00	29.965 
00:25	71.5	71.5	71.5	90	68.4	0	1	68	0.00	29.965 
00:30	71.5	71.5	71.5	90	68.4	0	1	68	0.00	29.964 
00:35	71.5	71.5	71.5	91	68.7	0	1	68	0.00	29.964 
00:40	71.5	71.5	71.5	91	68.7	0	2	68	0.00	29.964 
00:45	71.5	71.5	71.5	90	68.4	0	1	68	0.00	29.967 
00:50	71.5	71.5	71.5	90	68.4	0	2	68	0.00	29.967 
00:55	71.5	71.5	71.5	90	68.4	0	1	68	0.00	29.967 
01:00	71.5	71.5	71.5	90	68.4	0	1	68	0.00	29.971 
01:05	71.6	71.6	71.6	90	68.5	0	1	68	0.00	29.971 
01:10	71.6	71.6	71.6	90	68.5	0	3	270	0.00	29.971 
01:15	71.6	71.6	71.6	90	68.5	0	2	270	0.00	29.971 
01:20	71.6	71.6	71.6	90	68.5	0	2	270	0.00	29.971 
01:25	71.6	71.6	71.6	90	68.5	0	1	270	0.00	29.971 
01:30	71.6	71.6	71.6	89	68.2	0	2	270	0.00	29.970 
01:35	71.6	71.6	71.6	89	68.2	0	1	225	0.00	29.970 
01:40	71.6	71.6	71.6	89	68.2	0	1	225	0.00	29.970 
01:45	71.6	71.6	71.6	89	68.2	0	0	---	0.00	29.973 
01:50	71.5	71.5	71.5	89	68.1	0	0	---	0.00	29.973 
01:55	71.5	71.5	71.5	89	68.1	0	2	225	0.00	29.973 
02:00	71.3	71.3	71.3	89	67.9	0	0	---	0.00	29.973 
02:05	71.3	71.3	71.3	89	67.9	0	1	225	0.00	29.973 
02:10	71.3	71.3	71.3	89	67.9	0	1	225	0.00	29.973 
02:15	71.3	71.3	71.3	89	67.9	0	1	225	0.00	29.972 
02:20	71.3	71.3	71.3	89	67.9	0	1	225	0.00	29.972 
02:25	71.3	71.3	71.3	89	67.9	0	1	225	0.00	29.972 
02:30	71.3	71.3	71.3	89	67.9	0	0	---	0.00	29.970 
02:35	71.1	71.1	71.1	89	67.7	0	1	225	0.00	29.970 
02:40	71.1	71.1	71.1	89	67.7	0	1	225	0.00	29.970 
02:45	71.1	71.1	71.1	88	67.4	0	2	225	0.00	29.970 
02:50	71.1	71.1	71.1	88	67.4	0	0	---	0.00	29.970 
02:55	71.1	71.1	71.1	88	67.4	0	1	225	0.00	29.970 
03:00	70.9	70.9	70.9	88	67.2	0	1	225	0.00	29.971 
03:05	70.9	70.9	70.9	88	67.2	0	1	225	0.00	29.971 
03:10	70.9	70.9	70.9	88	67.2	0	2	225	0.00	29.971 
03:15	70.9	70.9	70.9	88	67.2	0	1	225	0.00	29.966 
03:20	70.8	70.8	70.8	88	67.1	0	0	---	0.00	29.966 
03:25	70.8	70.8	70.8	88	67.1	0	2	225	0.00	29.966 
03:30	70.8	70.8	70.8	88	67.1	0	1	225	0.00	29.968 
03:35	70.8	70.8	70.8	88	67.1	0	1	225	0.00	29.968 
03:40	70.6	70.6	70.6	88	66.9	0	1	225	0.00	29.968 
03:45	70.6	70.6	70.6	88	66.9	0	1	225	0.00	29.966 
03:50	70.6	70.6	70.6	88	66.9	0	0	---	0.00	29.966 
03:55	70.6	70.6	70.6	88	66.9	0	2	225	0.00	29.966 
04:00	70.4	70.4	70.4	88	66.7	0	2	225	0.00	29.964 
04:05	70.4	70.4	70.4	88	66.7	0	0	---	0.00	29.964 
04:10	70.4	70.4	70.4	88	66.7	0	1	225	0.00	29.964 
04:15	70.4	70.4	70.4	88	66.7	0	1	225	0.00	29.963 
04:20	70.3	70.3	70.3	88	66.6	0	1	225	0.00	29.963 
04:25	70.3	70.3	70.3	88	66.6	0	0	---	0.00	29.963 
04:30	70.3	70.3	70.3	88	66.6	0	1	225	0.00	29.962 
04:35	70.1	70.1	70.1	88	66.4	0	0	---	0.00	29.962 
04:40	70.1	70.1	70.1	88	66.4	0	0	---	0.00	29.962 
04:45	69.9	69.9	69.9	88	66.2	0	0	---	0.00	29.962 
04:50	69.9	69.9	69.9	89	66.5	0	1	225	0.00	29.962 
04:55	69.8	69.8	69.8	89	66.4	0	0	---	0.00	29.962 
05:00	69.8	69.8	69.8	89	66.4	0	1	225	0.00	29.963 
05:05	69.6	69.6	69.6	89	66.2	0	0	---	0.00	29.963 
05:10	69.4	69.4	69.4	89	66.0	0	0	---	0.00	29.963 
05:15	69.4	69.4	69.4	89	66.0	0	0	---	0.00	29.968 
05:20	69.3	69.3	69.3	89	65.9	0	0	---	0.00	29.968 
05:25	69.1	69.1	69.1	89	65.7	0	0	---	0.00	29.968 
05:30	69.1	69.1	69.1	90	66.0	0	0	---	0.00	29.975 
05:35	69.1	69.1	69.1	90	66.0	0	0	---	0.00	29.975 
05:40	69.1	69.1	69.1	90	66.0	0	0	---	0.00	29.975 
05:45	69.1	69.1	69.1	90	66.0	0	0	---	0.00	29.975 
05:50	69.1	69.1	69.1	90	66.0	0	1	225	0.00	29.975 
05:55	68.9	68.9	68.9	91	66.2	0	0	---	0.00	29.975 
06:00	69.1	69.1	69.1	91	66.4	0	0	---	0.00	29.977 
06:05	69.1	69.1	69.1	91	66.4	0	0	---	0.00	29.977 
06:10	69.1	69.1	69.1	91	66.4	0	0	---	0.00	29.977 
06:15	69.1	69.1	69.1	91	66.4	0	0	---	0.00	29.978 
06:20	69.1	69.1	69.1	91	66.4	0	0	---	0.00	29.978 
06:25	69.1	69.1	69.1	91	66.4	0	0	---	0.00	29.978 
06:30	69.1	69.1	69.1	91	66.4	0	0	---	0.00	29.979 
06:35	69.1	69.1	69.1	91	66.4	0	1	225	0.00	29.979 
06:40	69.1	69.1	69.1	91	66.4	0	0	---	0.00	29.979 
06:45	69.1	69.1	69.1	91	66.4	0	0	---	0.00	29.980 
06:50	69.3	69.3	69.3	91	66.6	0	1	225	0.00	29.980 
06:55	69.4	69.4	69.4	91	66.7	0	1	225	0.00	29.980 
07:00	69.4	69.4	69.4	91	66.7	0	0	---	0.00	29.988 
07:05	69.4	69.4	69.4	91	66.7	0	0	---	0.00	29.988 
07:10	69.4	69.4	69.4	91	66.7	0	0	---	0.00	29.988 
07:15	69.6	69.6	69.6	91	66.8	0	0	---	0.00	29.991 
07:20	69.6	69.6	69.6	91	66.8	0	0	---	0.00	29.991 
07:25	69.6	69.6	69.6	91	66.8	0	0	---	0.00	29.991 
07:30	69.6	69.6	69.6	91	66.8	0	0	---	0.00	29.991 
07:35	69.6	69.6	69.6	91	66.8	0	0	---	0.00	29.991 
07:40	69.6	69.6	69.6	91	66.8	0	0	---	0.00	29.991 
07:45	69.6	69.6	69.6	91	66.8	0	0	---	0.00	29.993 
07:50	69.8	69.8	69.8	91	67.0	0	1	225	0.00	29.993 
07:55	69.8	69.8	69.8	91	67.0	0	1	225	0.00	29.993 
08:00	69.9	69.9	69.9	91	67.1	0	1	225	0.00	29.994 
08:05	70.1	70.1	70.1	90	67.0	0	1	225	0.00	29.994 
08:10	70.4	70.4	70.4	90	67.3	0	1	225	0.00	29.994 
08:15	70.6	70.6	70.6	90	67.5	0	1	225	0.00	29.998 
08:20	70.8	70.8	70.8	89	67.4	0	1	225	0.00	29.998 
08:25	70.8	70.8	70.8	89	67.4	0	1	225	0.00	29.998 
08:30	70.9	70.9	70.9	89	67.5	0	1	225	0.00	30.002 
08:35	70.9	70.9	70.9	88	67.2	0	1	225	0.00	30.002 
08:40	70.9	70.9	70.9	88	67.2	0	1	225	0.00	30.002 
08:45	71.1	71.1	71.1	88	67.4	0	2	225	0.00	30.009 
08:50	71.3	71.3	71.3	88	67.6	0	2	225	0.00	30.009 
08:55	71.6	71.6	71.6	87	67.5	0	1	225	0.00	30.009 
09:00	72.1	72.1	72.1	87	68.0	0	1	225	0.00	30.003 
09:05	72.7	72.7	72.7	86	68.3	0	1	225	0.00	30.003 
09:10	73.2	73.2	73.2	84	68.1	0	3	180	0.00	30.003 
09:15	73.2	73.2	73.2	82	67.4	0	3	225	0.00	30.000 
09:20	73.2	73.2	73.2	81	67.0	0	3	248	0.00	30.000 
09:25	73.2	73.2	73.2	81	67.0	1	3	22	0.00	30.000 
09:30	73.2	73.2	73.2	81	67.0	0	3	22	0.00	30.004 
09:35	73.0	73.0	73.0	81	66.8	0	2	22	0.00	30.004 
09:40	73.0	73.0	73.0	81	66.8	0	3	292	0.00	30.004 
09:45	73.0	73.0	73.0	81	66.8	0	3	292	0.00	30.009 
09:50	72.8	72.8	72.8	81	66.6	0	1	292	0.00	30.009 
09:55	72.8	72.8	72.8	81	66.6	0	1	292	0.00	30.009 
10:00	72.8	72.8	72.8	81	66.6	0	2	292	0.00	30.011 
10:05	73.0	73.0	73.0	81	66.8	0	1	292	0.00	30.011 
10:10	73.2	73.2	73.2	81	67.0	0	1	292	0.00	30.011 
10:15	73.3	73.3	73.3	81	67.1	0	1	292	0.00	30.010 
10:20	74.2	74.2	74.2	81	68.0	0	1	292	0.00	30.010 
10:25	74.7	74.7	74.7	78	67.4	0	2	292	0.00	30.010 
10:30	74.7	74.7	74.7	77	67.0	0	2	292	0.00	30.009 
10:35	74.6	74.6	74.6	77	66.9	0	1	292	0.00	30.009 
10:40	74.9	74.9	74.9	76	66.8	0	2	292	0.00	30.009 
10:45	75.4	75.4	76.5	76	67.3	0	2	292	0.00	30.004 
10:50	75.6	75.6	76.9	75	67.1	0	2	292	0.00	30.004 
10:55	75.6	75.6	77.0	74	66.7	1	3	292	0.00	30.004 
11:00	75.6	75.6	77.0	73	66.3	1	3	292	0.00	30.007 
11:05	75.4	75.4	76.8	73	66.1	0	2	292	0.00	30.007 
11:10	75.3	75.3	76.7	73	66.0	0	3	292	0.00	30.007 
11:15	75.4	75.4	76.7	74	66.5	0	2	292	0.00	30.011 
11:20	75.3	75.3	76.7	73	66.0	0	3	292	0.00	30.011 
11:25	75.1	75.1	76.5	73	65.8	1	2	292	0.00	30.011 
11:30	74.9	74.9	74.9	74	66.0	0	2	292	0.00	30.010 
11:35	74.9	74.9	74.9	74	66.0	1	2	45	0.00	30.010 
11:40	74.9	74.9	74.9	75	66.4	1	4	22	0.00	30.010 
11:45	74.9	74.9	74.9	74	66.0	0	3	292	0.00	30.012 
11:50	74.9	74.9	74.9	74	66.0	0	2	292	0.00	30.012 
11:55	75.3	75.3	76.5	75	66.8	1	3	315	0.00	30.012 
12:00	75.6	75.6	77.0	74	66.7	1	3	315	0.00	30.011 
12:05	76.0	76.0	77.5	72	66.3	1	6	90	0.00	30.011 
12:10	76.5	76.5	78.2	69	65.6	1	4	270	0.00	30.011 
12:15	76.7	76.7	78.4	69	65.7	0	2	270	0.00	29.999 
12:20	77.0	77.0	78.8	68	65.6	1	3	270	0.00	29.999 
12:25	77.6	77.6	79.5	69	66.6	0	2	270	0.00	29.999 
12:30	77.7	77.7	79.6	67	65.8	1	3	135	0.00	30.006 
12:35	78.1	78.1	80.0	65	65.4	1	3	225	0.00	30.006 
12:40	78.3	78.3	80.2	65	65.5	0	3	292	0.00	30.006 
12:45	78.5	78.5	80.4	65	65.7	1	3	292	0.00	30.005 
12:50	79.0	79.0	81.0	64	65.8	1	2	292	0.00	30.005 
12:55	79.4	79.4	81.4	63	65.7	1	3	338	0.00	30.005 
13:00	79.4	79.4	81.2	61	64.8	0	2	315	0.00	29.996 
13:05	79.4	79.4	81.3	62	65.2	1	3	315	0.00	29.996 
13:10	79.6	79.6	81.3	59	64.0	1	3	315	0.00	29.996 
13:15	79.8	79.8	81.4	58	63.7	1	3	315	0.00	29.998 
13:20	79.6	79.6	81.3	59	64.0	1	4	248	0.00	29.998 
13:25	79.2	79.2	80.8	59	63.6	1	3	248	0.00	29.998 
13:30	79.4	79.4	81.0	59	63.8	1	4	248	0.00	29.997 
13:35	79.4	79.4	81.0	59	63.8	0	2	270	0.00	29.997 
13:40	79.4	79.4	81.3	62	65.2	0	5	270	0.00	29.997 
13:45	79.6	79.6	81.3	59	64.0	1	7	68	0.00	29.995 
13:50	79.6	79.6	81.2	58	63.5	1	5	270	0.00	29.995 
13:55	79.6	79.6	81.3	60	64.5	1	4	292	0.00	29.995 
14:00	79.9	79.9	81.5	58	63.8	1	4	225	0.00	29.992 
14:05	79.9	79.9	81.5	58	63.8	1	3	45	0.00	29.992 
14:10	79.9	79.9	81.7	60	64.7	1	5	292	0.00	29.992 
14:15	79.9	79.9	81.6	59	64.3	1	3	270	0.00	29.988 
14:20	79.8	79.8	81.4	58	63.7	1	3	270	0.00	29.988 
14:25	79.8	79.8	81.5	59	64.2	1	5	270	0.00	29.988 
14:30	80.1	80.1	81.7	58	64.0	1	3	270	0.00	29.977 
14:35	79.9	79.9	81.5	58	63.8	1	3	270	0.00	29.977 
14:40	79.9	79.9	81.3	56	62.8	1	3	270	0.00	29.977 
14:45	79.8	79.8	81.3	57	63.2	1	3	270	0.00	29.978 
14:50	79.6	79.6	81.0	56	62.5	1	4	270	0.00	29.978 
14:55	79.4	79.4	80.8	56	62.3	1	4	270	0.00	29.978 
15:00	79.2	79.2	80.7	57	62.6	1	3	270	0.00	29.979 
15:05	79.4	79.4	80.9	58	63.3	0	5	270	0.00	29.979 
15:10	79.4	79.4	80.9	57	62.8	1	4	45	0.00	29.979 
15:15	79.8	79.8	81.4	58	63.7	1	4	22	0.00	29.977 
15:20	79.9	79.9	81.5	58	63.8	1	4	90	0.00	29.977 
15:25	79.9	79.9	81.5	58	63.8	0	2	90	0.00	29.977 
15:30	79.9	79.9	81.3	56	62.8	0	2	90	0.00	29.966 
15:35	79.9	79.9	81.4	57	63.3	0	2	90	0.00	29.966 
15:40	79.9	79.9	81.4	57	63.3	1	3	90	0.00	29.966 
15:45	79.9	79.9	81.3	56	62.8	0	2	270	0.00	29.964 
15:50	79.8	79.8	81.2	56	62.7	0	2	270	0.00	29.964 
15:55	79.9	79.9	81.3	56	62.8	1	5	270	0.00	29.964 
16:00	79.9	79.9	81.4	57	63.3	0	3	248	0.00	29.963 
16:05	80.1	80.1	81.6	57	63.5	0	2	248	0.00	29.963 
16:10	80.1	80.1	81.4	55	62.4	0	2	248	0.00	29.963 
16:15	80.1	80.1	81.4	55	62.4	0	3	248	0.00	29.959 
16:20	79.9	79.9	80.8	51	60.1	1	4	248	0.00	29.959 
16:25	79.8	79.8	80.7	51	60.0	1	5	248	0.00	29.959 
16:30	79.9	79.9	80.8	51	60.1	0	2	248	0.00	29.954 
16:35	80.3	80.3	81.6	55	62.6	0	3	248	0.00	29.954 
16:40	80.5	80.5	81.3	50	60.1	1	4	248	0.00	29.954 
16:45	80.5	80.5	81.4	51	60.7	1	3	248	0.00	29.952 
16:50	80.7	80.7	81.7	52	61.4	1	4	248	0.00	29.952 
16:55	80.9	80.9	82.1	54	62.7	0	2	248	0.00	29.952 
17:00	80.9	80.9	81.9	52	61.6	1	3	248	0.00	29.951 
17:05	81.1	81.1	81.7	49	60.1	1	3	248	0.00	29.951 
17:10	81.1	81.1	81.6	48	59.5	2	6	270	0.00	29.951 
17:15	81.4	81.4	82.0	49	60.4	1	3	270	0.00	29.951 
17:20	81.4	81.4	82.0	49	60.4	1	3	270	0.00	29.951 
17:25	81.2	81.2	81.8	49	60.2	0	1	45	0.00	29.951 
17:30	81.2	81.2	81.9	50	60.8	1	4	270	0.00	29.944 
17:35	81.4	81.4	82.3	51	61.5	1	3	292	0.00	29.944 
17:40	81.8	81.8	82.6	50	61.3	1	3	292	0.00	29.944 
17:45	81.8	81.8	82.6	50	61.3	1	4	315	0.00	29.946 
17:50	82.0	82.0	82.8	50	61.5	0	3	315	0.00	29.946 
17:55	81.8	81.8	82.4	49	60.7	1	4	315	0.00	29.946 
18:00	81.6	81.6	82.3	50	61.1	1	3	270	0.00	29.942 
18:05	81.4	81.4	82.4	52	62.1	0	3	270	0.00	29.942 
18:10	81.2	81.2	81.9	50	60.8	0	3	270	0.00	29.942 
18:15	80.9	80.9	81.6	50	60.5	0	2	270	0.00	29.942 
18:20	80.3	80.3	81.1	50	59.9	0	3	270	0.00	29.942 
18:25	80.1	80.1	81.1	52	60.9	0	4	270	0.00	29.942 
18:30	79.8	79.8	80.8	52	60.6	1	3	270	0.00	29.934 
18:35	79.6	79.6	80.8	54	61.5	0	2	270	0.00	29.934 
18:40	79.4	79.4	80.5	53	60.8	1	4	270	0.00	29.934 
18:45	79.2	79.2	80.4	54	61.1	0	2	315	0.00	29.927 
18:50	79.0	79.0	80.3	54	60.9	0	2	315	0.00	29.927 
18:55	78.6	78.6	79.9	54	60.5	1	5	112	0.00	29.927 
19:00	78.3	78.3	79.7	54	60.3	1	2	112	0.00	29.924 
19:05	78.1	78.1	79.5	55	60.6	0	2	112	0.00	29.924 
19:10	77.9	77.9	79.4	55	60.4	0	2	112	0.00	29.924 
19:15	77.7	77.7	79.2	55	60.2	0	1	112	0.00	29.918 
19:20	77.7	77.7	79.2	55	60.2	1	2	112	0.00	29.918 
19:25	77.4	77.4	79.0	56	60.5	2	4	112	0.00	29.918 
19:30	76.0	76.0	78.0	61	61.6	2	6	315	0.00	29.940 
19:35	73.0	73.0	73.0	68	61.8	2	6	315	0.03	29.940 
19:40	71.5	71.5	71.5	81	65.4	0	2	315	0.07	29.940 
19:45	70.8	70.8	70.8	84	65.7	0	0	---	0.02	29.951 
19:50	70.8	70.8	70.8	86	66.4	0	1	315	0.00	29.951 
19:55	70.4	70.4	70.4	86	66.0	0	0	---	0.00	29.951 
20:00	70.1	70.1	70.1	87	66.0	0	1	315	0.00	29.939 
20:05	69.9	69.9	69.9	88	66.2	0	0	---	0.00	29.939 
20:10	69.8	69.8	69.8	88	66.1	0	1	315	0.00	29.939 
20:15	69.6	69.6	69.6	88	65.9	0	1	315	0.00	29.939 
20:20	69.4	69.4	69.4	89	66.0	0	0	---	0.00	29.939 
20:25	69.4	69.4	69.4	89	66.0	0	0	---	0.00	29.939 
20:30	69.4	69.4	69.4	89	66.0	0	0	---	0.00	29.942 
20:35	69.4	69.4	69.4	90	66.3	0	0	---	0.00	29.942 
20:40	69.3	69.3	69.3	90	66.2	0	0	---	0.00	29.942 
20:45	69.1	69.1	69.1	90	66.0	0	0	---	0.00	29.949 
20:50	68.9	68.9	68.9	90	65.8	0	0	---	0.00	29.949 
20:55	68.6	68.6	68.6	90	65.5	0	0	---	0.00	29.949 
21:00	68.4	68.4	68.4	90	65.3	0	0	---	0.00	29.953 
21:05	68.1	68.1	68.1	90	65.0	0	0	---	0.00	29.953 
21:10	67.9	67.9	67.9	91	65.2	0	0	---	0.00	29.953 
21:15	67.8	67.8	67.8	91	65.1	0	0	---	0.00	29.953 
21:20	67.6	67.6	67.6	91	64.9	0	0	---	0.00	29.953 
21:25	67.4	67.4	67.4	91	64.7	0	0	---	0.00	29.953 
21:30	67.3	67.3	67.3	91	64.6	0	0	---	0.00	29.953 
21:35	67.1	67.1	67.1	91	64.4	0	0	---	0.00	29.953 
21:40	66.9	66.9	66.9	92	64.5	0	0	---	0.00	29.953 
21:45	66.8	66.8	66.8	92	64.4	0	0	---	0.00	29.955 
21:50	66.8	66.8	66.8	92	64.4	0	1	315	0.00	29.955 
21:55	66.6	66.6	66.6	92	64.2	0	0	---	0.00	29.955 
22:00	66.6	66.6	66.6	92	64.2	0	0	---	0.00	29.962 
22:05	66.4	66.4	66.4	92	64.0	0	0	---	0.00	29.962 
22:10	66.4	66.4	66.4	92	64.0	0	1	315	0.00	29.962 
22:15	66.6	66.6	66.6	92	64.2	0	2	315	0.00	29.968 
22:20	66.9	66.9	66.9	92	64.5	1	4	315	0.00	29.968 
22:25	67.1	67.1	67.1	91	64.4	1	3	292	0.00	29.968 
22:30	66.9	66.9	66.9	89	63.5	1	3	292	0.00	29.979 
22:35	66.6	66.6	66.6	84	61.6	1	4	315	0.00	29.979 
22:40	66.0	66.0	66.0	73	57.1	2	5	315	0.00	29.979 
22:45	66.0	66.0	66.0	70	55.9	1	3	315	0.00	29.985 
22:50	65.8	65.8	65.8	67	54.5	1	3	315	0.00	29.985 
22:55	65.8	65.8	65.8	66	54.1	1	3	315	0.00	29.985 
23:00	65.8	65.8	65.8	65	53.7	2	4	315	0.00	29.988 
23:05	65.6	65.6	65.6	63	52.7	2	5	315	0.00	29.988 
23:10	65.6	65.6	65.6	62	52.2	1	3	315	0.00	29.988 
23:15	65.6	65.6	65.6	60	51.3	2	5	315	0.00	29.990 
23:20	65.6	65.6	65.6	58	50.4	1	4	315	0.00	29.990 
23:25	65.5	65.5	65.5	57	49.9	2	5	292	0.00	29.990 
23:30	65.3	65.3	65.3	57	49.7	2	6	270	0.00	29.997 
23:35	65.2	65.2	65.2	57	49.6	2	5	270	0.00	29.997 
23:40	65.0	65.0	65.0	58	49.9	2	4	270	0.00	29.997 
23:45	64.5	64.5	64.5	58	49.4	2	4	270	0.00	30.000 
23:50	64.2	64.2	64.2	59	49.6	1	3	270	0.00	30.000 
23:55	63.9	63.9	63.9	59	49.3	1	3	270	0.00	30.000 

CoCoRaHS
IN-AL-39
A2 Web Hosting
Creative Commons License
GoDaddy
search engine by freefind advanced

loaded 2018-11-17 00:10:45 • last modified 2010-11-18 10:43:29
Privacy PolicyDisclaimer
• wx.awcolley.com is powered by PmWiki v.2002016 •
• all content (unless otherwise noted) © 2018 A W Colley